createdAt,value
2022-10-26T00:01:08.698Z,18.77
2022-10-26T00:02:11.895Z,20.17
2022-10-26T00:03:14.831Z,19.02
2022-10-26T00:04:17.996Z,19.15
2022-10-26T00:05:20.352Z,16.13
2022-10-26T00:06:25.308Z,18.50
2022-10-26T00:07:29.665Z,21.67
2022-10-26T00:08:32.745Z,16.88
2022-10-26T00:09:34.826Z,19.55
2022-10-26T00:10:39.426Z,21.80
2022-10-26T00:11:41.846Z,21.17
2022-10-26T00:12:45.034Z,19.63
2022-10-26T00:13:48.059Z,20.75
2022-10-26T00:14:51.110Z,18.95
2022-10-26T00:15:53.449Z,17.95
2022-10-26T00:16:57.855Z,17.58
2022-10-26T00:18:00.003Z,18.85
2022-10-26T00:19:02.980Z,21.25
2022-10-26T00:20:05.554Z,22.38
2022-10-26T00:21:10.461Z,21.00
2022-10-26T00:22:12.473Z,18.33
2022-10-26T00:23:15.476Z,13.88
2022-10-26T00:25:20.379Z,20.30
2022-10-26T00:26:23.436Z,19.33
2022-10-26T00:27:25.424Z,18.50
2022-10-26T00:28:28.731Z,22.33
2022-10-26T00:29:30.741Z,21.65
2022-10-26T00:30:33.746Z,21.58
2022-10-26T00:31:35.816Z,18.67
2022-10-26T00:33:42.349Z,19.95
2022-10-26T00:34:45.379Z,19.67
2022-10-26T00:35:48.182Z,20.98
2022-10-26T00:36:51.197Z,19.98
2022-10-26T00:37:54.750Z,21.67
2022-10-26T00:38:58.644Z,19.45
2022-10-26T00:40:00.720Z,22.45
2022-10-26T00:41:03.793Z,19.38
2022-10-26T00:42:05.875Z,18.83
2022-10-26T00:43:15.859Z,17.35
2022-10-26T00:44:56.726Z,23.58
2022-10-26T00:46:00.234Z,15.75
2022-10-26T00:47:03.526Z,18.23
2022-10-26T00:48:10.635Z,22.05
2022-10-26T00:50:22.715Z,19.20
2022-10-26T00:51:32.896Z,16.35
2022-10-26T00:52:35.354Z,18.02
2022-10-26T00:53:39.034Z,19.25
2022-10-26T00:54:41.476Z,20.42
2022-10-26T00:55:47.140Z,19.45
2022-10-26T00:56:53.320Z,20.00
2022-10-26T00:57:55.657Z,20.58
2022-10-26T00:59:04.848Z,18.20
2022-10-26T01:00:08.453Z,19.90
2022-10-26T01:01:11.549Z,17.35
2022-10-26T01:02:13.860Z,20.73
2022-10-26T01:03:18.980Z,21.38
2022-10-26T01:04:21.699Z,19.83
2022-10-26T01:05:25.466Z,22.60
2022-10-26T01:06:29.194Z,18.65
2022-10-26T01:07:32.867Z,20.58
2022-10-26T01:08:35.084Z,16.13
2022-10-26T01:09:38.274Z,19.15
2022-10-26T01:10:42.896Z,21.70
2022-10-26T01:11:45.915Z,18.70
2022-10-26T01:12:48.011Z,24.55
2022-10-26T01:13:54.242Z,19.73
2022-10-26T01:14:56.379Z,17.40
2022-10-26T01:16:11.082Z,18.98
2022-10-26T01:17:29.644Z,23.20
2022-10-26T01:18:41.603Z,17.08
2022-10-26T01:20:24.087Z,24.45
2022-10-26T01:21:41.694Z,22.65
2022-10-26T01:22:52.436Z,20.92
2022-10-26T01:25:21.773Z,19.20
2022-10-26T01:26:46.731Z,17.48
2022-10-26T01:27:52.394Z,18.25
2022-10-26T01:29:30.311Z,20.98
2022-10-26T01:30:40.168Z,19.42
2022-10-26T01:31:46.964Z,18.23
2022-10-26T01:33:10.636Z,19.17
2022-10-26T01:34:16.330Z,18.90
2022-10-26T01:35:24.663Z,16.65
2022-10-26T01:36:33.858Z,20.83
2022-10-26T01:37:41.782Z,21.08
2022-10-26T01:38:54.535Z,18.35
2022-10-26T01:40:02.956Z,20.20
2022-10-26T01:41:12.607Z,18.30
2022-10-26T01:42:18.398Z,22.67
2022-10-26T01:43:23.344Z,19.88
2022-10-26T01:44:29.577Z,19.52
2022-10-26T01:45:35.441Z,18.90
2022-10-26T01:46:43.470Z,19.05
2022-10-26T01:47:48.230Z,14.70
2022-10-26T01:48:57.031Z,20.25
2022-10-26T01:50:01.175Z,17.25
2022-10-26T01:51:05.864Z,23.73
2022-10-26T01:52:09.874Z,19.98
2022-10-26T01:53:13.626Z,24.83
2022-10-26T01:54:15.671Z,22.98
2022-10-26T01:55:52.605Z,17.25
2022-10-26T01:57:00.324Z,18.50
2022-10-26T01:58:13.581Z,20.63
2022-10-26T01:59:32.089Z,18.90
2022-10-26T02:00:42.883Z,20.13
2022-10-26T02:03:16.727Z,19.77
2022-10-26T02:04:35.039Z,22.90
2022-10-26T02:06:00.490Z,21.35
2022-10-26T02:07:04.458Z,19.55
2022-10-26T02:08:28.257Z,21.52
2022-10-26T02:09:39.437Z,20.50
2022-10-26T02:10:50.956Z,20.60
2022-10-26T02:11:54.242Z,24.77
2022-10-26T02:13:04.474Z,25.20
2022-10-26T02:15:23.307Z,21.52
2022-10-26T02:16:37.278Z,18.15
2022-10-26T02:17:50.051Z,20.63
2022-10-26T02:19:00.919Z,21.98
2022-10-26T02:20:06.291Z,24.27
2022-10-26T02:21:15.569Z,17.50
2022-10-26T02:22:23.211Z,19.48
2022-10-26T02:23:26.419Z,25.25
2022-10-26T02:24:31.559Z,22.75
2022-10-26T02:25:37.651Z,24.50
2022-10-26T02:26:43.191Z,21.52
2022-10-26T02:27:50.546Z,23.10
2022-10-26T02:28:58.044Z,24.45
2022-10-26T02:30:03.948Z,24.45
2022-10-26T02:31:07.755Z,22.27
2022-10-26T02:32:13.262Z,22.17
2022-10-26T02:33:16.227Z,23.65
2022-10-26T02:34:25.215Z,21.27
2022-10-26T02:35:32.161Z,23.95
2022-10-26T02:36:39.277Z,27.80
2022-10-26T02:37:44.794Z,21.48
2022-10-26T02:38:49.855Z,20.48
2022-10-26T02:39:55.669Z,27.67
2022-10-26T02:41:00.893Z,23.73
2022-10-26T02:42:06.723Z,20.98
2022-10-26T02:43:22.188Z,18.88
2022-10-26T02:44:30.159Z,26.95
2022-10-26T02:45:37.095Z,21.35
2022-10-26T02:46:41.119Z,21.55
2022-10-26T02:47:44.998Z,20.63
2022-10-26T02:48:48.475Z,23.27
2022-10-26T02:49:51.082Z,23.45
2022-10-26T02:51:02.307Z,26.23
2022-10-26T02:52:10.925Z,25.50
2022-10-26T02:53:23.924Z,23.17
2022-10-26T02:54:34.277Z,23.15
2022-10-26T02:55:40.665Z,23.70
2022-10-26T02:56:49.137Z,23.88
2022-10-26T02:57:56.009Z,24.67
2022-10-26T02:59:03.245Z,24.80
2022-10-26T03:00:06.805Z,22.17
2022-10-26T03:01:10.134Z,21.33
2022-10-26T03:02:14.400Z,23.10
2022-10-26T03:03:18.790Z,28.50
2022-10-26T03:04:21.880Z,25.75
2022-10-26T03:05:26.105Z,24.05
2022-10-26T03:06:29.355Z,21.33
2022-10-26T03:07:31.414Z,19.52
2022-10-26T03:08:34.556Z,23.40
2022-10-26T03:09:36.718Z,18.98
2022-10-26T03:10:43.103Z,20.92
2022-10-26T03:11:45.229Z,33.28
2022-10-26T03:12:48.832Z,20.63
2022-10-26T03:13:51.069Z,22.65
2022-10-26T03:14:54.202Z,18.70
2022-10-26T03:15:56.872Z,25.45
2022-10-26T03:16:59.990Z,28.52
2022-10-26T03:18:02.099Z,24.83
2022-10-26T03:19:06.762Z,21.05
2022-10-26T03:20:09.759Z,23.30
2022-10-26T03:21:12.825Z,23.05
2022-10-26T03:22:14.923Z,26.83
2022-10-26T03:23:18.022Z,23.17
2022-10-26T03:24:20.081Z,26.58
2022-10-26T03:25:23.169Z,26.35
2022-10-26T03:26:25.537Z,22.98
2022-10-26T03:27:28.578Z,20.25
2022-10-26T03:28:30.644Z,20.15
2022-10-26T03:29:33.716Z,25.98
2022-10-26T03:30:35.919Z,21.75
2022-10-26T03:31:39.111Z,27.92
2022-10-26T03:32:41.249Z,19.85
2022-10-26T03:33:44.352Z,21.55
2022-10-26T03:34:47.796Z,27.25
2022-10-26T03:35:55.970Z,25.60
2022-10-26T03:36:59.269Z,20.38
2022-10-26T03:38:01.339Z,21.90
2022-10-26T03:39:04.463Z,23.75
2022-10-26T03:40:07.864Z,28.70
2022-10-26T03:41:11.018Z,25.40
2022-10-26T03:42:13.127Z,21.58
2022-10-26T03:43:16.223Z,18.98
2022-10-26T03:44:18.316Z,26.23
2022-10-26T03:45:21.479Z,21.30
2022-10-26T03:46:23.600Z,25.60
2022-10-26T03:47:26.680Z,21.02
2022-10-26T03:48:28.724Z,21.80
2022-10-26T03:49:31.867Z,21.75
2022-10-26T03:50:35.287Z,29.45
2022-10-26T03:51:38.369Z,25.70
2022-10-26T03:52:40.539Z,28.08
2022-10-26T03:53:43.659Z,27.10
2022-10-26T03:54:45.741Z,23.58
2022-10-26T03:55:48.791Z,24.48
2022-10-26T03:56:55.135Z,21.35
2022-10-26T03:57:58.512Z,28.30
2022-10-26T03:59:00.809Z,25.20
2022-10-26T04:00:04.000Z,20.25
2022-10-26T04:01:13.980Z,21.80
2022-10-26T04:02:17.481Z,21.50
2022-10-26T04:03:19.647Z,21.50
2022-10-26T04:04:22.786Z,22.08
2022-10-26T04:05:26.269Z,20.50
2022-10-26T04:06:30.721Z,18.85
2022-10-26T04:07:32.810Z,22.42
2022-10-26T04:08:36.082Z,23.90
2022-10-26T04:09:38.146Z,22.05
2022-10-26T04:10:41.242Z,25.23
2022-10-26T04:11:43.420Z,24.65
2022-10-26T04:12:46.482Z,20.13
2022-10-26T04:13:48.582Z,22.25
2022-10-26T04:14:51.721Z,21.83
2022-10-26T04:15:54.036Z,18.27
2022-10-26T04:16:57.185Z,18.13
2022-10-26T04:18:02.126Z,22.27
2022-10-26T04:19:04.341Z,19.30
2022-10-26T04:20:08.983Z,19.20
2022-10-26T04:21:11.056Z,20.08
2022-10-26T04:22:15.822Z,19.83
2022-10-26T04:23:19.279Z,21.05
2022-10-26T04:24:22.368Z,20.48
2022-10-26T04:25:27.458Z,25.92
2022-10-26T04:26:33.235Z,20.13
2022-10-26T04:27:35.612Z,22.67
2022-10-26T04:28:38.691Z,22.23
2022-10-26T04:29:40.784Z,20.23
2022-10-26T04:30:43.963Z,21.20
2022-10-26T04:31:46.066Z,27.75
2022-10-26T04:32:49.349Z,30.30
2022-10-26T04:33:51.639Z,22.38
2022-10-26T04:34:54.732Z,25.08
2022-10-26T04:36:00.027Z,27.48
2022-10-26T04:37:03.114Z,28.55
2022-10-26T04:38:07.638Z,30.92
2022-10-26T04:39:10.740Z,27.50
2022-10-26T04:40:14.792Z,28.23
2022-10-26T04:41:16.985Z,27.52
2022-10-26T04:42:20.102Z,29.67
2022-10-26T04:43:22.172Z,30.67
2022-10-26T04:44:25.248Z,28.83
2022-10-26T04:45:28.679Z,24.15
2022-10-26T04:46:31.838Z,25.83
2022-10-26T04:47:33.921Z,24.77
2022-10-26T04:48:37.083Z,31.38
2022-10-26T04:49:39.168Z,28.67
2022-10-26T04:50:42.345Z,29.70
2022-10-26T04:51:44.469Z,27.55
2022-10-26T04:52:51.839Z,26.35
2022-10-26T04:53:55.981Z,26.52
2022-10-26T04:54:59.063Z,26.20
2022-10-26T04:56:01.577Z,28.58
2022-10-26T04:57:04.858Z,25.13
2022-10-26T04:58:07.322Z,23.30
2022-10-26T04:59:10.402Z,30.10
2022-10-26T05:00:13.329Z,32.00
2022-10-26T05:01:16.612Z,23.83
2022-10-26T05:02:18.777Z,30.95
2022-10-26T05:03:22.096Z,25.63
2022-10-26T05:04:24.178Z,29.67
2022-10-26T05:05:27.254Z,30.15
2022-10-26T05:06:30.718Z,30.80
2022-10-26T05:07:32.776Z,32.10
2022-10-26T05:08:35.922Z,32.05
2022-10-26T05:09:39.399Z,30.45
2022-10-26T05:10:42.597Z,34.38
2022-10-26T05:11:44.651Z,27.40
2022-10-26T05:12:52.099Z,33.22
2022-10-26T05:13:55.190Z,33.83
2022-10-26T05:14:59.158Z,33.80
2022-10-26T05:16:02.301Z,36.13
2022-10-26T05:17:04.425Z,32.60
2022-10-26T05:18:09.025Z,26.40
2022-10-26T05:19:11.359Z,26.25
2022-10-26T05:20:14.578Z,28.65
2022-10-26T05:21:19.764Z,29.98
2022-10-26T05:22:21.982Z,35.38
2022-10-26T05:23:25.120Z,32.70
2022-10-26T05:24:27.178Z,27.92
2022-10-26T05:25:35.050Z,31.83
2022-10-26T05:26:37.092Z,33.75
2022-10-26T05:27:40.157Z,33.13
2022-10-26T05:28:42.273Z,35.33
2022-10-26T05:29:45.408Z,32.00
2022-10-26T05:30:47.581Z,26.25
2022-10-26T05:31:50.687Z,31.73
2022-10-26T05:32:55.731Z,38.50
2022-10-26T05:33:58.783Z,37.50
2022-10-26T05:35:00.887Z,34.95
2022-10-26T05:36:03.995Z,34.22
2022-10-26T05:37:06.086Z,29.58
2022-10-26T05:38:09.733Z,29.70
2022-10-26T05:39:11.782Z,34.67
2022-10-26T05:40:15.611Z,30.67
2022-10-26T05:41:20.082Z,31.67
2022-10-26T05:42:22.163Z,38.75
2022-10-26T05:43:25.503Z,30.13
2022-10-26T05:44:27.604Z,33.97
2022-10-26T05:45:31.272Z,35.63
2022-10-26T05:46:33.323Z,33.30
2022-10-26T05:47:39.409Z,30.50
2022-10-26T05:48:41.524Z,32.58
2022-10-26T05:49:44.553Z,31.95
2022-10-26T05:50:47.974Z,31.63
2022-10-26T05:51:50.012Z,30.35
2022-10-26T05:52:53.081Z,38.13
2022-10-26T05:53:55.149Z,37.13
2022-10-26T05:54:58.284Z,36.47
2022-10-26T05:56:04.878Z,41.83
2022-10-26T05:57:13.677Z,33.92
2022-10-26T05:58:17.500Z,33.65
2022-10-26T05:59:20.078Z,34.13
2022-10-26T06:00:25.187Z,35.97
2022-10-26T06:01:36.286Z,32.38
2022-10-26T06:02:48.705Z,40.42
2022-10-26T06:04:07.127Z,37.40
2022-10-26T06:05:12.379Z,38.53
2022-10-26T06:06:14.889Z,33.90
2022-10-26T06:07:20.101Z,29.55
2022-10-26T06:08:25.521Z,33.75
2022-10-26T06:09:29.181Z,39.65
2022-10-26T06:10:32.005Z,36.13
2022-10-26T06:11:35.784Z,32.92
2022-10-26T06:12:40.790Z,32.60
2022-10-26T06:13:43.435Z,35.50
2022-10-26T06:14:47.081Z,40.05
2022-10-26T06:16:00.913Z,36.10
2022-10-26T06:17:18.611Z,39.28
2022-10-26T06:18:29.965Z,40.60
2022-10-26T06:19:48.535Z,38.47
2022-10-26T06:21:04.871Z,33.72
2022-10-26T06:22:21.940Z,36.88
2022-10-26T06:23:44.812Z,40.88
2022-10-26T06:24:58.327Z,42.45
2022-10-26T06:26:08.227Z,42.72
2022-10-26T06:27:20.712Z,49.50
2022-10-26T06:28:35.549Z,46.08
2022-10-26T06:29:51.403Z,40.03
2022-10-26T06:30:53.520Z,36.42
2022-10-26T06:31:56.760Z,40.08
2022-10-26T06:33:06.365Z,44.50
2022-10-26T06:34:27.519Z,44.60
2022-10-26T06:35:38.190Z,43.20
2022-10-26T06:36:41.520Z,43.50
2022-10-26T06:37:46.703Z,40.05
2022-10-26T06:38:51.062Z,43.08
2022-10-26T06:39:55.811Z,40.78
2022-10-26T06:40:59.486Z,39.45
2022-10-26T06:42:03.438Z,35.20
2022-10-26T06:43:12.642Z,41.00
2022-10-26T06:44:23.682Z,42.13
2022-10-26T06:45:26.594Z,50.22
2022-10-26T06:46:38.296Z,47.72
2022-10-26T06:47:50.168Z,40.42
2022-10-26T06:49:01.130Z,43.83
2022-10-26T06:51:16.480Z,43.67
2022-10-26T06:52:28.540Z,44.75
2022-10-26T06:53:37.152Z,47.83
2022-10-26T06:54:49.919Z,43.50
2022-10-26T06:55:54.122Z,53.55
2022-10-26T06:56:56.639Z,44.65
2022-10-26T06:57:59.931Z,43.67
2022-10-26T06:59:08.820Z,42.20
2022-10-26T07:00:20.774Z,46.10
2022-10-26T07:01:23.091Z,45.90
2022-10-26T07:02:26.521Z,54.85
2022-10-26T07:03:28.698Z,47.00
2022-10-26T07:04:31.748Z,58.83
2022-10-26T07:05:35.079Z,53.13
2022-10-26T07:06:39.389Z,51.42
2022-10-26T07:07:43.776Z,49.88
2022-10-26T07:08:46.848Z,47.15
2022-10-26T07:09:49.593Z,59.03
2022-10-26T07:10:52.649Z,55.83
2022-10-26T07:11:55.728Z,51.42
2022-10-26T07:12:57.897Z,51.95
2022-10-26T07:14:00.991Z,55.70
2022-10-26T07:15:04.894Z,49.60
2022-10-26T07:16:09.654Z,55.15
2022-10-26T07:17:11.709Z,53.55
2022-10-26T07:18:14.929Z,50.38
2022-10-26T07:19:17.017Z,45.67
2022-10-26T07:20:21.829Z,53.88
2022-10-26T07:21:24.139Z,48.47
2022-10-26T07:22:27.219Z,50.75
2022-10-26T07:24:33.295Z,55.00
2022-10-26T07:25:35.704Z,49.38
2022-10-26T07:26:38.762Z,48.67
2022-10-26T07:27:40.830Z,48.15
2022-10-26T07:28:43.896Z,50.45
2022-10-26T07:29:46.061Z,52.05
2022-10-26T07:30:52.764Z,46.38
2022-10-26T07:32:00.529Z,48.08
2022-10-26T07:33:04.839Z,49.72
2022-10-26T07:34:07.855Z,51.63
2022-10-26T07:35:10.106Z,44.45
2022-10-26T07:36:13.646Z,46.55
2022-10-26T07:37:16.715Z,48.88
2022-10-26T07:38:18.819Z,50.42
2022-10-26T07:39:21.863Z,52.00
2022-10-26T07:40:24.160Z,43.38
2022-10-26T07:41:27.259Z,46.13
2022-10-26T07:42:29.417Z,41.70
2022-10-26T07:43:32.542Z,45.03
2022-10-26T07:44:34.615Z,54.95
2022-10-26T07:45:37.833Z,47.67
2022-10-26T07:46:39.851Z,41.33
2022-10-26T07:47:44.394Z,45.17
2022-10-26T07:48:47.531Z,46.08
2022-10-26T07:49:49.578Z,43.72
2022-10-26T07:50:52.626Z,40.00
2022-10-26T07:51:54.634Z,49.42
2022-10-26T07:52:59.520Z,44.67
2022-10-26T07:54:01.658Z,47.05
2022-10-26T07:55:04.909Z,45.00
2022-10-26T07:56:08.634Z,37.85
2022-10-26T07:57:10.661Z,36.38
2022-10-26T07:58:13.828Z,39.35
2022-10-26T07:59:17.136Z,35.88
2022-10-26T08:00:20.337Z,40.92
2022-10-26T08:01:23.805Z,38.38
2022-10-26T08:02:26.093Z,36.13
2022-10-26T08:03:30.522Z,34.08
2022-10-26T08:04:33.654Z,32.33
2022-10-26T08:05:36.216Z,31.83
2022-10-26T08:06:39.482Z,30.33
2022-10-26T08:07:42.829Z,31.90
2022-10-26T08:08:47.684Z,27.05
2022-10-26T08:09:49.916Z,34.63
2022-10-26T08:10:53.873Z,27.27
2022-10-26T08:11:56.912Z,29.42
2022-10-26T08:12:59.959Z,25.85
2022-10-26T08:14:04.071Z,27.98
2022-10-26T08:15:08.350Z,26.08
2022-10-26T08:16:11.522Z,28.38
2022-10-26T08:17:14.542Z,21.52
2022-10-26T08:18:16.591Z,21.48
2022-10-26T08:19:21.332Z,19.55
2022-10-26T08:20:24.395Z,20.67
2022-10-26T08:21:39.152Z,21.92
2022-10-26T08:22:42.761Z,22.73
2022-10-26T08:23:46.126Z,18.02
2022-10-26T08:24:49.141Z,21.02
2022-10-26T08:25:51.207Z,23.77
2022-10-26T08:26:54.260Z,19.98
2022-10-26T08:27:57.340Z,17.85
2022-10-26T08:29:00.422Z,20.15
2022-10-26T08:30:03.870Z,14.70
2022-10-26T08:31:07.852Z,17.42
2022-10-26T08:32:10.041Z,16.25
2022-10-26T08:33:13.119Z,15.40
2022-10-26T08:34:15.492Z,12.57
2022-10-26T08:35:20.270Z,15.48
2022-10-26T08:36:26.332Z,13.63
2022-10-26T08:37:28.594Z,19.90
2022-10-26T08:38:33.896Z,16.92
2022-10-26T08:39:37.004Z,20.63
2022-10-26T08:40:41.557Z,14.48
2022-10-26T08:41:47.157Z,20.52
2022-10-26T08:42:54.310Z,15.52
2022-10-26T08:43:59.323Z,15.10
2022-10-26T08:45:06.616Z,20.92
2022-10-26T08:46:14.888Z,15.55
2022-10-26T08:47:22.313Z,15.73
2022-10-26T08:48:33.315Z,14.82
2022-10-26T08:49:44.485Z,15.25
2022-10-26T08:50:52.636Z,18.17
2022-10-26T08:52:01.130Z,14.98
2022-10-26T08:53:10.680Z,14.88
2022-10-26T08:54:18.268Z,12.73
2022-10-26T08:55:28.136Z,13.70
2022-10-26T08:56:40.722Z,14.45
2022-10-26T08:57:43.042Z,13.98
2022-10-26T08:58:50.827Z,11.07
2022-10-26T08:59:59.208Z,13.35
2022-10-26T09:01:01.540Z,16.08
2022-10-26T09:02:04.994Z,12.10
2022-10-26T09:03:13.176Z,14.93
2022-10-26T09:04:16.330Z,13.93
2022-10-26T09:05:23.590Z,15.50
2022-10-26T09:06:40.520Z,13.73
2022-10-26T09:07:50.917Z,13.27
2022-10-26T09:10:16.719Z,13.27
2022-10-26T09:11:30.194Z,11.88
2022-10-26T09:12:45.578Z,13.20
2022-10-26T09:14:01.097Z,14.55
2022-10-26T09:15:15.367Z,11.13
2022-10-26T09:16:26.322Z,18.90
2022-10-26T09:17:41.470Z,14.25
2022-10-26T09:18:50.848Z,18.42
2022-10-26T09:20:20.334Z,13.88
2022-10-26T09:21:37.075Z,12.07
2022-10-26T09:22:45.469Z,11.88
2022-10-26T09:24:13.961Z,17.60
2022-10-26T09:25:19.789Z,14.43
2022-10-26T09:26:31.134Z,13.30
2022-10-26T09:27:41.885Z,10.18
2022-10-26T09:29:50.942Z,13.07
2022-10-26T09:30:54.298Z,13.25
2022-10-26T09:32:01.626Z,13.05
2022-10-26T09:33:15.282Z,13.80
2022-10-26T09:34:28.010Z,12.27
2022-10-26T09:35:41.589Z,10.10
2022-10-26T09:36:45.257Z,12.43
2022-10-26T09:37:52.981Z,11.43
2022-10-26T09:39:03.982Z,11.13
2022-10-26T09:40:14.663Z,12.52
2022-10-26T09:42:32.606Z,10.80
2022-10-26T09:43:41.802Z,11.25
2022-10-26T09:44:54.919Z,10.93
2022-10-26T09:45:56.979Z,12.10
2022-10-26T09:47:07.172Z,12.90
2022-10-26T09:48:15.879Z,128.63
2022-10-26T09:49:22.322Z,18.90
2022-10-26T09:50:30.205Z,14.40
2022-10-26T09:51:32.868Z,11.85
2022-10-26T09:52:37.342Z,11.23
2022-10-26T09:53:39.357Z,11.15
2022-10-26T09:54:42.488Z,16.92
2022-10-26T09:55:47.015Z,14.50
2022-10-26T09:56:54.437Z,11.35
2022-10-26T09:58:00.862Z,13.40
2022-10-26T09:59:07.073Z,12.38
2022-10-26T10:00:15.586Z,11.15
2022-10-26T10:01:35.462Z,12.18
2022-10-26T10:02:44.828Z,11.65
2022-10-26T10:03:47.984Z,11.35
2022-10-26T10:04:50.059Z,8.85
2022-10-26T10:05:53.974Z,11.98
2022-10-26T10:07:15.206Z,17.25
2022-10-26T10:08:22.654Z,10.70
2022-10-26T10:09:25.843Z,14.52
2022-10-26T10:10:28.861Z,11.23
2022-10-26T10:11:40.063Z,11.43
2022-10-26T10:12:42.249Z,10.60
2022-10-26T10:13:47.596Z,12.30
2022-10-26T10:14:57.821Z,11.80
2022-10-26T10:16:06.576Z,9.82
2022-10-26T10:17:20.027Z,10.70
2022-10-26T10:18:25.174Z,15.27
2022-10-26T10:19:30.434Z,13.02
2022-10-26T10:20:33.431Z,13.25
2022-10-26T10:21:38.581Z,14.80
2022-10-26T10:22:57.939Z,13.90
2022-10-26T10:24:02.467Z,9.75
2022-10-26T10:25:23.217Z,9.00
2022-10-26T10:26:26.327Z,12.95
2022-10-26T10:27:30.463Z,16.42
2022-10-26T10:28:35.309Z,13.23
2022-10-26T10:29:42.517Z,10.75
2022-10-26T10:30:52.917Z,10.88
2022-10-26T10:32:00.436Z,12.63
2022-10-26T10:33:07.066Z,19.48
2022-10-26T10:34:17.679Z,10.25
2022-10-26T10:35:24.604Z,11.23
2022-10-26T10:36:30.439Z,9.68
2022-10-26T10:37:38.224Z,12.15
2022-10-26T10:38:44.581Z,14.05
2022-10-26T10:39:50.380Z,19.30
2022-10-26T10:40:58.217Z,9.10
2022-10-26T10:42:02.355Z,10.75
2022-10-26T10:43:11.535Z,15.07
2022-10-26T10:44:27.002Z,14.05
2022-10-26T10:45:30.847Z,12.27
2022-10-26T10:46:34.435Z,11.57
2022-10-26T10:47:38.602Z,12.23
2022-10-26T10:48:47.398Z,13.27
2022-10-26T10:49:56.952Z,10.15
2022-10-26T10:51:01.404Z,12.23
2022-10-26T10:52:04.927Z,13.63
2022-10-26T10:53:19.521Z,13.80
2022-10-26T10:54:26.846Z,12.23
2022-10-26T10:55:31.705Z,9.18
2022-10-26T10:56:44.122Z,11.13
2022-10-26T10:58:04.028Z,12.98
2022-10-26T10:59:24.482Z,12.38
2022-10-26T11:00:28.011Z,10.43
2022-10-26T11:01:40.005Z,15.35
2022-10-26T11:03:16.944Z,9.80
2022-10-26T11:04:37.793Z,10.27
2022-10-26T11:05:59.412Z,13.05
2022-10-26T11:07:06.255Z,11.70
2022-10-26T11:08:12.439Z,13.43
2022-10-26T11:09:19.899Z,8.98
2022-10-26T11:10:27.358Z,7.80
2022-10-26T11:11:41.701Z,6.88
2022-10-26T11:12:51.928Z,10.65
2022-10-26T11:14:01.522Z,14.73
2022-10-26T11:15:09.592Z,13.35
2022-10-26T11:16:16.458Z,10.82
2022-10-26T11:17:22.565Z,15.25
2022-10-26T11:18:31.627Z,10.95
2022-10-26T11:19:43.803Z,9.63
2022-10-26T11:20:49.730Z,11.77
2022-10-26T11:21:55.963Z,8.05
2022-10-26T11:24:17.689Z,11.23
2022-10-26T11:25:28.331Z,9.65
2022-10-26T11:26:38.670Z,10.73
2022-10-26T11:27:46.155Z,11.70
2022-10-26T11:28:54.702Z,10.23
2022-10-26T11:30:05.201Z,7.78
2022-10-26T11:32:17.935Z,11.48
2022-10-26T11:33:27.049Z,9.13
2022-10-26T11:34:37.306Z,10.10
2022-10-26T11:35:46.696Z,13.77
2022-10-26T11:36:57.729Z,9.45
2022-10-26T11:38:05.037Z,11.80
2022-10-26T11:39:15.746Z,10.30
2022-10-26T11:40:29.591Z,11.85
2022-10-26T11:41:41.409Z,10.38
2022-10-26T11:42:47.792Z,8.23
2022-10-26T11:43:53.908Z,10.35
2022-10-26T11:45:03.139Z,13.70
2022-10-26T11:46:18.139Z,12.80
2022-10-26T11:47:28.126Z,11.70
2022-10-26T11:48:37.160Z,12.02
2022-10-26T11:49:44.940Z,9.50
2022-10-26T11:50:53.118Z,8.82
2022-10-26T11:52:00.824Z,8.32
2022-10-26T11:53:11.913Z,18.45
2022-10-26T11:54:22.478Z,10.20
2022-10-26T11:55:25.588Z,12.38
2022-10-26T11:56:32.081Z,11.93
2022-10-26T11:57:38.468Z,14.00
2022-10-26T11:58:41.267Z,8.18
2022-10-26T11:59:49.901Z,10.10
2022-10-26T12:00:57.757Z,12.95
2022-10-26T12:02:05.159Z,9.13
2022-10-26T12:03:11.477Z,10.82
2022-10-26T12:04:14.756Z,12.75
2022-10-26T12:05:24.006Z,11.35
2022-10-26T12:06:31.937Z,10.68
2022-10-26T12:07:38.144Z,12.50
2022-10-26T12:08:44.509Z,13.00
2022-10-26T12:09:46.555Z,12.65
2022-10-26T12:10:54.174Z,10.18
2022-10-26T12:12:03.146Z,8.98
2022-10-26T12:13:19.262Z,9.13
2022-10-26T12:14:27.468Z,15.82
2022-10-26T12:16:01.725Z,13.07
2022-10-26T12:17:04.862Z,11.68
2022-10-26T12:18:20.265Z,15.13
2022-10-26T12:19:35.867Z,13.07
2022-10-26T12:21:02.601Z,11.90
2022-10-26T12:22:06.294Z,11.02
2022-10-26T12:23:16.168Z,12.43
2022-10-26T12:24:29.525Z,14.02
2022-10-26T12:25:31.770Z,11.90
2022-10-26T12:26:51.661Z,10.63
2022-10-26T12:27:55.926Z,8.85
2022-10-26T12:29:31.049Z,10.73
2022-10-26T12:30:37.072Z,6.93
2022-10-26T12:31:43.464Z,9.55
2022-10-26T12:32:55.343Z,10.73
2022-10-26T12:33:57.964Z,9.70
2022-10-26T12:35:03.417Z,9.02
2022-10-26T12:36:47.654Z,9.23
2022-10-26T12:37:50.007Z,10.00
2022-10-26T12:39:02.287Z,10.80
2022-10-26T12:40:40.699Z,9.73
2022-10-26T12:41:57.883Z,10.13
2022-10-26T12:45:17.770Z,8.82
2022-10-26T12:46:38.522Z,9.00
2022-10-26T12:48:10.794Z,10.57
2022-10-26T12:49:59.146Z,8.73
2022-10-26T12:51:40.183Z,13.05
2022-10-26T12:54:07.074Z,10.32
2022-10-26T12:55:49.528Z,11.55
2022-10-26T12:57:00.650Z,6.45
2022-10-26T12:58:28.485Z,8.68
2022-10-26T12:59:42.519Z,6.53
2022-10-26T13:00:51.931Z,10.82
2022-10-26T13:02:24.381Z,15.88
2022-10-26T13:03:34.644Z,11.63
2022-10-26T13:05:08.960Z,8.60
2022-10-26T13:06:38.790Z,7.88
2022-10-26T13:07:45.529Z,9.65
2022-10-26T13:08:52.345Z,6.97
2022-10-26T13:10:03.948Z,7.70
2022-10-26T13:11:13.270Z,14.20
2022-10-26T13:12:16.858Z,11.02
2022-10-26T13:13:24.743Z,9.98
2022-10-26T13:14:31.873Z,8.00
2022-10-26T13:15:40.013Z,12.30
2022-10-26T13:16:45.485Z,7.18
2022-10-26T13:17:59.935Z,8.15
2022-10-26T13:19:03.356Z,6.32
2022-10-26T13:20:08.336Z,6.95
2022-10-26T13:21:14.906Z,8.60
2022-10-26T13:22:22.000Z,9.18
2022-10-26T13:23:28.291Z,8.55
2022-10-26T13:24:32.757Z,6.80
2022-10-26T13:25:35.896Z,8.90
2022-10-26T13:27:29.715Z,8.90
2022-10-26T13:28:35.604Z,7.03
2022-10-26T13:30:18.654Z,8.85
2022-10-26T13:31:57.084Z,7.78
2022-10-26T13:33:00.873Z,7.55
2022-10-26T13:34:10.776Z,6.10
2022-10-26T13:35:15.859Z,8.95
2022-10-26T13:36:26.675Z,9.15
2022-10-26T13:37:32.398Z,12.40
2022-10-26T13:38:38.021Z,8.32
2022-10-26T13:39:43.340Z,6.22
2022-10-26T13:40:47.063Z,5.68
2022-10-26T13:41:52.509Z,11.85
2022-10-26T13:42:58.646Z,8.77
2022-10-26T13:44:05.653Z,7.28
2022-10-26T13:45:13.647Z,6.20
2022-10-26T13:46:28.815Z,7.05
2022-10-26T13:47:42.516Z,7.70
2022-10-26T13:48:48.111Z,6.38
2022-10-26T13:49:56.530Z,11.15
2022-10-26T13:51:03.300Z,6.05
2022-10-26T13:52:14.251Z,7.88
2022-10-26T13:53:22.507Z,10.15
2022-10-26T13:54:31.911Z,7.90
2022-10-26T13:55:38.366Z,10.07
2022-10-26T13:56:46.981Z,6.07
2022-10-26T13:58:03.872Z,10.98
2022-10-26T13:59:10.579Z,11.27
2022-10-26T14:00:19.488Z,6.88
2022-10-26T14:01:26.374Z,6.45
2022-10-26T14:02:30.555Z,6.50
2022-10-26T14:03:34.047Z,8.18
2022-10-26T14:04:37.234Z,6.20
2022-10-26T14:05:43.165Z,9.05
2022-10-26T14:06:50.896Z,6.35
2022-10-26T14:07:57.832Z,8.38
2022-10-26T14:09:02.899Z,10.10
2022-10-26T14:10:06.973Z,7.38
2022-10-26T14:11:12.872Z,8.57
2022-10-26T14:12:16.193Z,10.18
2022-10-26T14:13:23.932Z,6.57
2022-10-26T14:14:30.258Z,8.00
2022-10-26T14:15:35.351Z,9.02
2022-10-26T14:16:46.502Z,6.25
2022-10-26T14:17:52.709Z,7.20
2022-10-26T14:18:58.265Z,4.63
2022-10-26T14:20:02.110Z,6.95
2022-10-26T14:21:08.375Z,7.78
2022-10-26T14:22:23.151Z,9.68
2022-10-26T14:23:26.928Z,9.65
2022-10-26T14:24:47.024Z,8.00
2022-10-26T14:27:06.013Z,16.48
2022-10-26T14:28:27.358Z,11.88
2022-10-26T14:29:33.434Z,9.93
2022-10-26T14:30:38.004Z,10.43
2022-10-26T14:31:41.136Z,9.50
2022-10-26T14:32:45.151Z,8.38
2022-10-26T14:33:48.762Z,8.98
2022-10-26T14:34:53.023Z,7.60
2022-10-26T14:35:57.693Z,9.85
2022-10-26T14:37:03.824Z,12.30
2022-10-26T14:38:11.752Z,10.20
2022-10-26T14:39:25.732Z,6.28
2022-10-26T14:40:32.379Z,10.05
2022-10-26T14:41:37.138Z,7.63
2022-10-26T14:42:45.937Z,9.80
2022-10-26T14:43:49.443Z,7.90
2022-10-26T14:44:51.915Z,12.57
2022-10-26T14:45:57.352Z,18.80
2022-10-26T14:47:00.505Z,9.75
2022-10-26T14:48:05.812Z,21.55
2022-10-26T14:49:20.588Z,14.25